Adams, New York
Current Conditions -  °F | °C
As of 8:56 PM on Thursday 20 Nov 2014 (Local Time) from KART Reporting Station
Few Clouds Few Clouds  
Wind Chill: 15°   Ceiling: Unl
Heat Index: 28°   Visibility: 10mi
Dew Point:   Wind: 18mph
Humidity: 43%   Direction: 280°W
Pressure: 29.87"   Gusts: 35mph
Location:  43.81°N, 76.02°W
Report Text: KART 210156Z AUTO 28016G30KT 10SM FEW050 M02/M13 A2987 RMK AO2 PK WND 28030/0148 SLP122 T10221133
Loading
Personal Weather Stations






























Interactive Weather Map New forecast layout! Learn more

10-Day Weather Forecast

Advertisements
Track Severe Weather on mobile